Ana Sayfa
METAR-TAF:

METAR-TAF

Havaalanları :

Pattaya-Rayong, Tayland

Enlem: 12-38N, Boylam: 101-21E, yükseklik: 3 m

Güncel hava durumu gözlemi

Rapor saat 12:30 UTC de 45 dakika önce yapıldı.
Rüzgar güneybatıdan 9 kt
Sıcaklık 29°C
Nem 70%
Basınç 1005 hPa
Görüş mesafesi 10 km veya daha fazla
2000 ft yükseklikte az bulutlu

METAR: VTBU 191230Z 22009KT 9999 FEW020 29/23 Q1005 NOSIG

Saat: 20:15 (13:15 UTC)

Tahmin

Rapor saat 11:00 UTC de 2 saat ve 15 dakika önce yapıldı.
Ayın 19'si saat 12 UTC'den ayın 20'si saat 12 UTC'ye kadar geçerli Tahmin
Rüzgar güney/güneybatıdan 8 kt
Görüş mesafesi 10 km veya daha fazla
2000 ft yükseklikte az bulutlu
Dönüşüyor
ayın 19'si saat 19 UTC'den ayın 19'si saat 21 UTC'ye kadar
Rüzgar batı/güneybatıdan 4 kt
Dönüşüyor
ayın 20'si saat 01 UTC'den ayın 20'si saat 03 UTC'ye kadar
Rüzgar güneydan 10 kt

TAF: VTBU 191100Z 1912/2012 20008KT 9999 FEW020 BECMG 1919/1921 24004KT BECMG 2001/2003 19010KT

4.000'den fazla havaalanı için hava durumu gözlemleri ve tahminleri (METAR ve TAF raporları).

Kullanılabilir istasyonlar harita üzerinde sarı ve kırmızı noktalarla gösterilir.

İstasyonun adını görmek için fareyi noktanın üzerinde gezdirin.

Sonrasında hava gözlem ve tahminlerini görmek için tıklayın.

Haritayı değiştirmek için: yaklaştırmak için siyah artı işaretli yeşil düğmeye ve uzaklaştırmak için de eksi işaretli düğmeye hızla tıklayın; bitişik haritalar için yeşil okları kullanın.


METAR-TAF: